Time;durP1;ratioP1;P1;durP2;ratioP2;P2;SDS_P1;SDS_P2;PMS_P1;PMS_P2;Temp;Humidity;BMP_temperature;BMP_pressure;BME280_temperature;BME280_humidity;BME280_pressure;Samples;Min_cycle;Max_cycle;Signal;HPM_P1;HPM_P2
2021/01/25 00:00:08;;;;;;;9.32;4.00;;;0.60;99.90;;;;;;4970388;28;20039;-77
2021/01/25 00:02:34;;;;;;;13.15;4.28;;;0.60;99.90;;;;;;4955759;28;20030;-77
2021/01/25 00:04:59;;;;;;;7.22;3.70;;;0.60;99.90;;;;;;4954423;29;20031;-77
2021/01/25 00:07:25;;;;;;;12.52;4.10;;;0.70;99.90;;;;;;4955723;29;20475;-77
2021/01/25 00:09:51;;;;;;;6.95;3.35;;;0.70;99.90;;;;;;4968147;28;20034;-76
2021/01/25 00:12:17;;;;;;;7.93;3.00;;;0.70;99.90;;;;;;4974535;28;20038;-77
2021/01/25 00:14:42;;;;;;;9.43;2.80;;;0.70;99.90;;;;;;4974534;28;20396;-77
2021/01/25 00:17:08;;;;;;;8.38;3.45;;;0.80;99.90;;;;;;4974931;28;20034;-77
2021/01/25 00:19:33;;;;;;;6.55;2.53;;;0.70;99.90;;;;;;4974407;28;20475;-76
2021/01/25 00:21:59;;;;;;;4.35;2.70;;;0.70;99.90;;;;;;4974722;28;20102;-76
2021/01/25 00:24:24;;;;;;;6.28;3.33;;;0.70;99.90;;;;;;4974398;28;20149;-76
2021/01/25 00:26:50;;;;;;;6.78;2.15;;;0.60;99.90;;;;;;4989455;28;20069;-77
2021/01/25 00:29:15;;;;;;;4.90;2.80;;;0.60;99.90;;;;;;4974417;28;20058;-77
2021/01/25 00:31:41;;;;;;;8.75;2.47;;;0.50;99.90;;;;;;4974621;28;20030;-77
2021/01/25 00:34:06;;;;;;;4.07;2.42;;;0.40;99.90;;;;;;4974305;28;20031;-77
2021/01/25 00:36:32;;;;;;;5.53;2.42;;;0.30;99.90;;;;;;4974462;28;20027;-76
2021/01/25 00:38:57;;;;;;;5.95;1.70;;;0.30;99.90;;;;;;4973826;28;20423;-76
2021/01/25 00:41:23;;;;;;;5.85;1.55;;;0.30;99.90;;;;;;4974323;28;20098;-77
2021/01/25 00:43:48;;;;;;;6.97;2.35;;;0.30;99.90;;;;;;4973919;28;20062;-76
2021/01/25 00:46:14;;;;;;;2.78;1.65;;;0.30;99.90;;;;;;4974373;28;20049;-77
2021/01/25 00:48:39;;;;;;;7.35;2.00;;;0.20;99.90;;;;;;4973943;28;20037;-76
2021/01/25 00:51:06;;;;;;;7.60;1.70;;;0.20;99.90;;;;;;4974296;28;20031;-76
2021/01/25 00:53:31;;;;;;;6.28;1.40;;;0.20;99.90;;;;;;4974083;28;20023;-76
2021/01/25 00:55:57;;;;;;;5.03;1.55;;;0.20;99.90;;;;;;4972652;28;20122;-77
2021/01/25 00:58:22;;;;;;;2.30;1.30;;;0.20;99.90;;;;;;4973229;28;20030;-76
2021/01/25 01:00:48;;;;;;;9.20;1.67;;;0.20;99.90;;;;;;4973801;28;20045;-76
2021/01/25 01:03:13;;;;;;;3.42;1.40;;;0.20;99.90;;;;;;4972775;28;20042;-76
2021/01/25 01:05:39;;;;;;;4.70;1.20;;;0.20;99.90;;;;;;4973777;28;20395;-76
2021/01/25 01:08:05;;;;;;;2.92;0.90;;;0.20;99.90;;;;;;4973785;28;20434;-76
2021/01/25 01:10:30;;;;;;;3.45;1.30;;;0.10;99.90;;;;;;4973577;28;20553;-77
2021/01/25 01:12:56;;;;;;;5.43;1.02;;;0.10;99.90;;;;;;4973220;28;20045;-76
2021/01/25 01:15:21;;;;;;;2.15;0.70;;;0.20;99.90;;;;;;4973590;28;20026;-76
2021/01/25 01:17:47;;;;;;;4.10;1.08;;;0.20;99.90;;;;;;4972469;28;20045;-76
2021/01/25 01:20:13;;;;;;;4.47;1.02;;;0.20;99.90;;;;;;4973399;28;20034;-77
2021/01/25 01:22:39;;;;;;;8.93;0.70;;;0.20;99.90;;;;;;4988321;28;20031;-76
2021/01/25 01:25:06;;;;;;;5.45;1.30;;;0.20;99.90;;;;;;4973454;28;20042;-77
2021/01/25 01:27:32;;;;;;;8.05;0.95;;;0.20;99.90;;;;;;4972172;28;20109;-76
2021/01/25 01:29:58;;;;;;;9.23;1.02;;;0.20;99.90;;;;;;4973339;28;20539;-77
2021/01/25 01:32:23;;;;;;;3.42;0.90;;;0.20;99.90;;;;;;4973469;28;20030;-76
2021/01/25 01:34:49;;;;;;;2.78;0.60;;;0.20;99.90;;;;;;4973299;28;20034;-77
2021/01/25 01:37:14;;;;;;;3.17;0.90;;;0.20;99.90;;;;;;4973332;28;20065;-76
2021/01/25 01:39:40;;;;;;;0.95;0.75;;;0.10;99.90;;;;;;4968720;28;20042;-76
2021/01/25 01:42:06;;;;;;;0.75;0.75;;;0.10;99.90;;;;;;4952671;28;20019;-76
2021/01/25 01:44:32;;;;;;;1.55;0.90;;;0.10;99.90;;;;;;4966789;28;20038;-76
2021/01/25 01:46:58;;;;;;;1.52;0.77;;;0.10;99.90;;;;;;4973358;28;20026;-76
2021/01/25 01:49:24;;;;;;;1.25;0.63;;;0.20;99.90;;;;;;4971827;28;20117;-76
2021/01/25 01:51:50;;;;;;;2.55;0.77;;;0.20;99.90;;;;;;4971882;28;20069;-76
2021/01/25 01:54:18;;;;;;;4.53;0.75;;;0.20;99.90;;;;;;4971765;28;20061;-77
2021/01/25 01:56:44;;;;;;;2.53;1.00;;;0.30;99.90;;;;;;4973012;28;20027;-77
2021/01/25 01:59:10;;;;;;;2.15;1.00;;;0.30;99.90;;;;;;4972701;28;20045;-77
2021/01/25 02:01:35;;;;;;;4.03;0.68;;;0.30;99.90;;;;;;4973125;28;20039;-76
2021/01/25 02:04:01;;;;;;;1.35;0.80;;;0.30;99.90;;;;;;4972893;28;20094;-76
2021/01/25 02:06:29;;;;;;;1.10;0.60;;;0.30;99.90;;;;;;4971817;28;20077;-76
2021/01/25 02:08:57;;;;;;;3.35;0.70;;;0.30;99.90;;;;;;4972753;28;20109;-76
2021/01/25 02:11:24;;;;;;;0.95;0.47;;;0.20;99.90;;;;;;4972792;28;20039;-76
2021/01/25 02:13:50;;;;;;;1.48;0.65;;;0.20;99.90;;;;;;4971340;28;20038;-77
2021/01/25 02:16:16;;;;;;;2.33;0.52;;;0.20;99.90;;;;;;4973360;28;20049;-77
2021/01/25 02:18:42;;;;;;;1.63;0.85;;;0.20;99.90;;;;;;4971425;28;20479;-77
2021/01/25 02:21:15;;;;;;;3.15;0.95;;;0.20;99.90;;;;;;4972876;28;20039;-77
2021/01/25 02:24:07;;;;;;;1.05;0.82;;;0.30;99.90;;;;;;4972412;28;20097;-76
2021/01/25 02:27:03;;;;;;;1.63;0.90;;;0.40;99.90;;;;;;4971625;28;20027;-77
2021/01/25 02:29:29;;;;;;;7.47;0.95;;;0.40;99.90;;;;;;4972618;28;20058;-76
2021/01/25 02:31:55;;;;;;;8.25;0.93;;;0.40;99.90;;;;;;4972891;28;20045;-76
2021/01/25 02:34:21;;;;;;;11.02;1.10;;;0.40;99.90;;;;;;4972711;28;20479;-77
2021/01/25 02:36:47;;;;;;;3.80;0.80;;;0.40;99.90;;;;;;4972817;28;20150;-77
2021/01/25 02:39:14;;;;;;;2.28;1.15;;;0.40;99.90;;;;;;4972363;28;20542;-77
2021/01/25 02:41:41;;;;;;;3.00;0.90;;;0.40;99.90;;;;;;4987659;28;20034;-77
2021/01/25 02:44:09;;;;;;;4.43;1.02;;;0.40;99.90;;;;;;4972336;28;20392;-76
2021/01/25 02:46:36;;;;;;;3.78;0.80;;;0.40;99.90;;;;;;4972740;28;20431;-77
2021/01/25 02:49:02;;;;;;;2.33;0.88;;;0.30;99.90;;;;;;4970926;28;20419;-77
2021/01/25 02:51:28;;;;;;;2.22;0.95;;;0.30;99.90;;;;;;4972725;28;20055;-77
2021/01/25 02:53:53;;;;;;;3.40;1.20;;;0.30;99.90;;;;;;4972368;28;20112;-77
2021/01/25 02:56:19;;;;;;;3.88;0.70;;;0.30;99.90;;;;;;4971348;28;20049;-76
2021/01/25 02:58:46;;;;;;;7.05;1.10;;;0.30;99.90;;;;;;4972314;28;20800;-76
2021/01/25 03:01:11;;;;;;;9.40;2.25;;;0.20;99.90;;;;;;4972597;28;20026;-77
2021/01/25 03:03:39;;;;;;;4.10;1.10;;;0.20;99.90;;;;;;4972468;28;20509;-76
2021/01/25 03:06:05;;;;;;;5.97;1.10;;;0.10;99.90;;;;;;4987460;28;20019;-76
2021/01/25 03:08:30;;;;;;;2.92;1.05;;;0.00;99.90;;;;;;4970977;28;20406;-77
2021/01/25 03:10:56;;;;;;;5.15;1.15;;;-0.10;99.90;;;;;;4970117;28;20035;-76
2021/01/25 03:13:29;;;;;;;5.30;0.80;;;-0.10;99.90;;;;;;4971277;28;20058;-76
2021/01/25 03:15:57;;;;;;;4.32;0.90;;;-0.20;99.90;;;;;;4972320;28;20030;-76
2021/01/25 03:18:26;;;;;;;4.30;0.90;;;-0.20;99.90;;;;;;4971281;28;20513;-76
2021/01/25 03:20:53;;;;;;;2.15;1.08;;;-0.30;99.90;;;;;;4967624;28;20089;-77
2021/01/25 03:23:19;;;;;;;3.28;1.35;;;-0.30;99.90;;;;;;4955581;28;20024;-76
2021/01/25 03:25:45;;;;;;;1.35;1.10;;;-0.30;99.90;;;;;;4956269;28;20034;-76
2021/01/25 03:28:11;;;;;;;3.22;0.90;;;-0.30;99.90;;;;;;4958543;28;20047;-76
2021/01/25 03:30:37;;;;;;;1.95;1.50;;;-0.40;99.90;;;;;;4975830;28;20514;-76
2021/01/25 03:33:04;;;;;;;6.93;1.55;;;-0.50;99.90;;;;;;4975668;28;20061;-76
2021/01/25 03:35:29;;;;;;;1.88;0.90;;;-0.50;99.90;;;;;;4975458;28;20030;-77
2021/01/25 03:37:55;;;;;;;1.35;0.98;;;-0.60;99.90;;;;;;4975571;28;20030;-76
2021/01/25 03:40:20;;;;;;;1.33;1.00;;;-0.60;99.90;;;;;;4975238;28;20097;-76
2021/01/25 03:42:46;;;;;;;2.03;1.17;;;-0.60;99.90;;;;;;4974168;28;20129;-77
2021/01/25 03:45:12;;;;;;;7.00;1.30;;;-0.60;99.90;;;;;;4975110;28;20124;-76
2021/01/25 03:47:37;;;;;;;3.13;1.42;;;-0.50;99.90;;;;;;4974106;28;20015;-76
2021/01/25 03:50:04;;;;;;;4.38;1.67;;;-0.60;99.90;;;;;;4973917;28;20038;-76
2021/01/25 03:52:30;;;;;;;4.25;1.00;;;-0.50;99.90;;;;;;4975172;28;20113;-76
2021/01/25 03:54:56;;;;;;;5.90;1.15;;;-0.40;99.90;;;;;;4975155;28;20460;-76
2021/01/25 03:57:21;;;;;;;5.80;1.45;;;-0.40;99.90;;;;;;4975301;28;20457;-76
2021/01/25 03:59:47;;;;;;;7.47;1.70;;;-0.30;99.90;;;;;;4974833;28;20041;-76
2021/01/25 04:02:13;;;;;;;5.80;1.48;;;-0.20;99.90;;;;;;4975167;28;20054;-76
2021/01/25 04:04:42;;;;;;;8.73;1.60;;;-0.10;99.90;;;;;;4973795;28;20106;-76
2021/01/25 04:07:10;;;;;;;2.85;1.20;;;0.00;99.90;;;;;;4975023;28;20488;-76
2021/01/25 04:09:37;;;;;;;3.30;1.20;;;0.10;99.90;;;;;;4973551;28;20518;-76
2021/01/25 04:12:03;;;;;;;2.70;1.30;;;0.20;99.90;;;;;;4974898;28;20043;-76
2021/01/25 04:14:29;;;;;;;9.48;1.70;;;0.30;99.90;;;;;;4974456;28;20022;-76
2021/01/25 04:16:54;;;;;;;2.60;1.33;;;0.30;99.90;;;;;;4973761;28;20085;-76
2021/01/25 04:19:20;;;;;;;3.88;1.27;;;0.20;99.90;;;;;;4974602;28;20035;-77
2021/01/25 04:21:45;;;;;;;9.50;1.30;;;0.20;99.90;;;;;;4974771;28;20103;-77
2021/01/25 04:24:11;;;;;;;11.20;3.67;;;0.20;99.90;;;;;;4974555;28;20139;-76
2021/01/25 04:26:41;;;;;;;3.15;1.05;;;0.10;99.90;;;;;;4974763;28;20031;-76
2021/01/25 04:29:10;;;;;;;7.28;1.15;;;0.10;99.90;;;;;;4974660;28;20030;-77
2021/01/25 04:31:36;;;;;;;4.32;0.82;;;0.00;99.90;;;;;;4974732;28;20368;-76
2021/01/25 04:34:02;;;;;;;5.13;1.08;;;-0.10;99.90;;;;;;4973236;28;20037;-76
2021/01/25 04:36:28;;;;;;;3.03;1.10;;;-0.20;99.90;;;;;;4973267;28;20039;-76
2021/01/25 04:38:53;;;;;;;8.15;1.08;;;-0.30;99.90;;;;;;4974194;28;20534;-76
2021/01/25 04:41:19;;;;;;;3.67;0.93;;;-0.40;99.90;;;;;;4974562;28;20095;-76
2021/01/25 04:43:46;;;;;;;3.20;1.10;;;-0.50;99.90;;;;;;4974086;28;20446;-76
2021/01/25 04:46:12;;;;;;;6.55;1.30;;;-0.60;99.90;;;;;;4974397;28;20110;-76
2021/01/25 04:48:40;;;;;;;2.67;0.80;;;-0.60;99.90;;;;;;4974392;28;20111;-76
2021/01/25 04:51:06;;;;;;;6.03;1.33;;;-0.70;99.90;;;;;;4974349;28;20101;-77
2021/01/25 04:53:32;;;;;;;10.00;1.40;;;-0.70;99.90;;;;;;4974209;28;20018;-77
2021/01/25 04:55:58;;;;;;;3.63;1.20;;;-0.80;99.90;;;;;;4974089;28;20030;-76
2021/01/25 04:58:24;;;;;;;4.43;1.13;;;-0.80;99.90;;;;;;4973840;28;20027;-76
2021/01/25 05:00:50;;;;;;;1.50;0.90;;;-0.90;99.90;;;;;;4973895;28;20041;-76
2021/01/25 05:03:16;;;;;;;4.43;1.20;;;-1.00;99.90;;;;;;4974043;28;20027;-76
2021/01/25 05:05:42;;;;;;;1.95;1.08;;;-1.00;99.90;;;;;;4973747;28;20077;-76
2021/01/25 05:08:07;;;;;;;2.97;1.30;;;-1.10;99.90;;;;;;4973982;28;20023;-75
2021/01/25 05:10:33;;;;;;;5.10;1.10;;;-1.10;99.90;;;;;;4969116;28;20028;-76
2021/01/25 05:12:59;;;;;;;2.25;1.00;;;-1.20;99.90;;;;;;4954744;28;20027;-76
2021/01/25 05:15:28;;;;;;;5.35;1.30;;;-1.20;99.90;;;;;;4973383;28;20042;-76
2021/01/25 05:18:00;;;;;;;5.53;1.52;;;-1.20;99.90;;;;;;4973833;28;20125;-76
2021/01/25 05:20:27;;;;;;;1.60;1.05;;;-1.20;99.90;;;;;;4973419;28;20034;-76
2021/01/25 05:22:58;;;;;;;3.42;1.40;;;-1.30;99.90;;;;;;4973699;28;20443;-76
2021/01/25 05:25:28;;;;;;;1.73;1.00;;;-1.30;99.90;;;;;;4973564;28;20031;-76
2021/01/25 05:27:55;;;;;;;5.00;1.10;;;-1.30;99.90;;;;;;4973671;28;20023;-76
2021/01/25 05:30:21;;;;;;;12.52;1.60;;;-1.30;99.90;;;;;;4973112;28;20038;-76
2021/01/25 05:32:48;;;;;;;6.72;1.85;;;-1.30;99.90;;;;;;4973424;28;20419;-75
2021/01/25 05:35:19;;;;;;;4.60;1.90;;;-1.30;99.90;;;;;;4972066;28;20030;-76
2021/01/25 05:37:51;;;;;;;7.50;2.15;;;-1.40;99.90;;;;;;4973585;28;20101;-76
2021/01/25 05:40:19;;;;;;;2.95;1.63;;;-1.30;99.90;;;;;;4973147;28;20026;-76
2021/01/25 05:42:44;;;;;;;5.72;2.20;;;-1.20;99.90;;;;;;4973171;28;20472;-76
2021/01/25 05:45:12;;;;;;;4.95;2.63;;;-1.20;99.90;;;;;;4972561;28;20045;-76
2021/01/25 05:47:47;;;;;;;7.25;1.80;;;-1.30;99.90;;;;;;4973324;28;20676;-76
2021/01/25 05:50:29;;;;;;;5.65;1.70;;;-1.40;99.90;;;;;;4972946;28;20110;-76
2021/01/25 05:52:57;;;;;;;8.45;1.80;;;-1.40;99.90;;;;;;4971913;28;20041;-76
2021/01/25 05:55:23;;;;;;;5.45;2.67;;;-1.50;99.90;;;;;;4973066;28;20034;-76
2021/01/25 05:57:48;;;;;;;4.57;2.38;;;-1.50;99.90;;;;;;4973193;28;20037;-75
2021/01/25 06:00:14;;;;;;;3.55;2.72;;;-1.50;99.90;;;;;;4971636;28;20041;-76
2021/01/25 06:02:46;;;;;;;7.22;2.30;;;-1.50;99.90;;;;;;4972683;28;20110;-75
2021/01/25 06:05:34;;;;;;;8.00;2.92;;;-1.40;99.90;;;;;;4987926;28;20023;-76
2021/01/25 06:08:38;;;;;;;7.13;2.17;;;-1.40;99.90;;;;;;4972653;28;20589;-76
2021/01/25 06:11:16;;;;;;;4.22;2.42;;;-1.50;99.90;;;;;;4948543;28;20047;-75
2021/01/25 06:13:50;;;;;;;5.57;2.95;;;-1.40;99.90;;;;;;4968256;28;20031;-76
2021/01/25 06:16:17;;;;;;;7.88;2.88;;;-1.40;99.90;;;;;;4953768;29;20110;-76
2021/01/25 06:18:45;;;;;;;8.93;4.00;;;-1.30;99.90;;;;;;4952825;28;20027;-77
2021/01/25 06:21:15;;;;;;;10.23;4.53;;;-1.30;99.90;;;;;;4971723;28;20023;-75
2021/01/25 06:23:42;;;;;;;7.82;3.15;;;-1.30;99.90;;;;;;4972818;28;20106;-76
2021/01/25 06:26:08;;;;;;;8.45;2.75;;;-1.20;99.90;;;;;;4972992;28;20015;-76
2021/01/25 06:28:34;;;;;;;9.93;3.00;;;-1.30;99.90;;;;;;4972596;28;20480;-76
2021/01/25 06:31:00;;;;;;;5.90;2.47;;;-1.40;99.90;;;;;;4972844;28;20035;-76
2021/01/25 06:33:25;;;;;;;11.73;2.92;;;-1.40;99.90;;;;;;4987688;28;20050;-76
2021/01/25 06:35:51;;;;;;;18.33;3.05;;;-1.40;99.90;;;;;;4971449;28;20027;-76
2021/01/25 06:38:19;;;;;;;7.90;2.90;;;-1.50;99.90;;;;;;4972714;28;20037;-76
2021/01/25 06:40:47;;;;;;;11.23;2.92;;;-1.60;99.90;;;;;;4972592;28;20031;-76
2021/01/25 06:43:14;;;;;;;14.15;3.72;;;-1.60;99.90;;;;;;4971311;28;20029;-76
2021/01/25 06:45:44;;;;;;;8.48;2.83;;;-1.60;99.90;;;;;;4972478;28;20101;-76
2021/01/25 06:48:20;;;;;;;7.38;3.28;;;-1.60;99.90;;;;;;4972755;28;20070;-76
2021/01/25 06:50:49;;;;;;;9.27;2.97;;;-1.60;99.90;;;;;;4987530;28;20121;-75
2021/01/25 06:53:15;;;;;;;15.05;4.00;;;-1.70;99.90;;;;;;4972664;28;20027;-75
2021/01/25 06:55:42;;;;;;;8.98;3.10;;;-1.60;99.90;;;;;;4971285;28;20035;-76
2021/01/25 06:58:10;;;;;;;7.47;3.47;;;-1.60;99.90;;;;;;4973541;28;20022;-75
2021/01/25 07:00:39;;;;;;;10.27;3.42;;;-1.70;99.90;;;;;;4976281;28;20027;-76
2021/01/25 07:03:06;;;;;;;11.68;3.78;;;-1.70;99.90;;;;;;4976019;28;20034;-75
2021/01/25 07:05:35;;;;;;;9.35;3.42;;;-1.60;99.90;;;;;;4976129;28;20047;-75
2021/01/25 07:08:16;;;;;;;12.35;3.33;;;-1.60;99.90;;;;;;4976147;28;20027;-76
2021/01/25 07:11:01;;;;;;;6.90;3.42;;;-1.50;99.90;;;;;;4975862;28;20035;-76
2021/01/25 07:13:31;;;;;;;17.10;3.97;;;-1.30;99.90;;;;;;4975899;28;20030;-76
2021/01/25 07:15:57;;;;;;;15.23;3.88;;;-1.20;99.90;;;;;;4975985;28;20027;-76
2021/01/25 07:18:25;;;;;;;16.55;4.03;;;-1.00;99.90;;;;;;4976002;28;20094;-76
2021/01/25 07:20:55;;;;;;;8.70;4.07;;;-1.00;99.90;;;;;;4975652;28;20034;-76
2021/01/25 07:23:23;;;;;;;10.93;3.25;;;-1.00;99.90;;;;;;4975919;28;20073;-76
2021/01/25 07:25:59;;;;;;;6.22;2.65;;;-1.00;99.90;;;;;;4976060;28;20034;-76
2021/01/25 07:28:27;;;;;;;8.57;3.08;;;-1.00;99.90;;;;;;4975577;28;20482;-76
2021/01/25 07:30:53;;;;;;;8.93;3.28;;;-1.00;99.90;;;;;;4975763;28;20134;-76
2021/01/25 07:33:19;;;;;;;16.75;2.97;;;-0.90;99.90;;;;;;4975641;28;20070;-76
2021/01/25 07:35:45;;;;;;;4.57;2.65;;;-0.90;99.90;;;;;;4969933;28;20514;-76
2021/01/25 07:38:11;;;;;;;5.85;2.60;;;-0.80;99.90;;;;;;4968724;28;20678;-76
2021/01/25 07:40:36;;;;;;;15.10;2.80;;;-0.70;99.90;;;;;;4970657;28;20653;-77
2021/01/25 07:43:04;;;;;;;7.70;2.80;;;-0.70;99.90;;;;;;4973819;28;20060;-75
2021/01/25 07:45:30;;;;;;;11.52;3.05;;;-0.60;99.90;;;;;;4971943;28;20120;-76
2021/01/25 07:47:56;;;;;;;12.77;3.22;;;-0.50;99.90;;;;;;4974927;28;20388;-76
2021/01/25 07:50:21;;;;;;;9.15;2.75;;;-0.50;99.90;;;;;;4975302;28;20034;-77
2021/01/25 07:52:58;;;;;;;10.13;2.17;;;-0.40;99.90;;;;;;4975021;28;20086;-76
2021/01/25 07:55:23;;;;;;;5.50;1.73;;;-0.50;99.90;;;;;;4973554;28;20403;-76
2021/01/25 07:57:49;;;;;;;6.25;1.80;;;-0.60;99.90;;;;;;4975078;28;20031;-76
2021/01/25 08:00:19;;;;;;;12.50;1.88;;;-0.60;99.90;;;;;;4973801;28;20046;-76
2021/01/25 08:02:52;;;;;;;11.55;1.90;;;-0.60;99.90;;;;;;4973377;28;20443;-76
2021/01/25 08:05:18;;;;;;;;;;;-0.60;99.90;;;;;;4974194;28;20027;-76
2021/01/25 08:07:45;;;;;;;6.50;1.85;;;-0.70;99.90;;;;;;4973470;28;20389;-76
2021/01/25 08:10:12;;;;;;;11.15;2.25;;;-0.70;99.90;;;;;;4973144;28;20038;-76
2021/01/25 08:12:38;;;;;;;8.05;2.00;;;-0.60;99.90;;;;;;4973464;28;20041;-76
2021/01/25 08:15:10;;;;;;;5.15;2.53;;;-0.70;99.90;;;;;;4974484;28;20085;-76
2021/01/25 08:17:54;;;;;;;3.53;2.08;;;-0.70;99.90;;;;;;4973607;28;20032;-76
2021/01/25 08:20:21;;;;;;;;;;;-0.50;99.90;;;;;;4975043;28;20038;-76
2021/01/25 08:23:10;;;;;;;18.23;4.20;;;-0.40;99.90;;;;;;4974732;28;19945;-76
2021/01/25 08:25:36;;;;;;;24.98;4.93;;;-0.10;99.90;;;;;;4989287;28;20065;-76
2021/01/25 08:28:18;;;;;;;16.02;5.80;;;0.10;99.90;;;;;;4973452;28;20477;-76
2021/01/25 08:30:48;;;;;;;22.58;6.40;;;0.20;99.90;;;;;;4955466;29;20461;-76
2021/01/25 08:33:29;;;;;;;15.85;5.22;;;0.40;99.90;;;;;;4955123;28;20114;-76
2021/01/25 08:35:57;;;;;;;25.75;5.90;;;0.50;99.90;;;;;;4955072;28;20042;-76
2021/01/25 08:38:52;;;;;;;14.00;5.63;;;0.50;99.90;;;;;;4955171;28;20373;-76
2021/01/25 08:41:22;;;;;;;14.52;5.25;;;0.50;99.90;;;;;;4957726;28;20043;-76
2021/01/25 08:43:57;;;;;;;12.63;4.13;;;0.60;99.90;;;;;;4974020;28;20065;-76
2021/01/25 08:46:32;;;;;;;12.13;4.30;;;0.70;99.90;;;;;;4974190;28;20023;-76
2021/01/25 08:49:35;;;;;;;14.80;3.40;;;0.80;99.90;;;;;;4974124;28;20027;-76
2021/01/25 08:52:35;;;;;;;9.02;3.92;;;0.90;99.90;;;;;;4943399;28;20035;-76
2021/01/25 08:55:11;;;;;;;12.30;3.40;;;0.90;99.90;;;;;;4974029;28;20027;-76
2021/01/25 08:57:39;;;;;;;12.60;3.15;;;0.90;99.90;;;;;;4972847;28;20019;-76
2021/01/25 09:00:16;;;;;;;13.73;2.85;;;1.00;99.90;;;;;;4973602;28;20407;-77
2021/01/25 09:02:43;;;;;;;14.00;2.38;;;1.10;99.90;;;;;;4973618;28;20033;-76
2021/01/25 09:05:12;;;;;;;9.88;2.65;;;1.20;99.90;;;;;;4973923;28;20093;-77
2021/01/25 09:07:38;;;;;;;9.48;2.08;;;1.20;99.90;;;;;;4972597;28;20035;-77
2021/01/25 09:10:05;;;;;;;8.95;1.88;;;1.30;99.90;;;;;;4972673;28;20368;-77
2021/01/25 09:12:30;;;;;;;5.40;1.80;;;1.30;99.90;;;;;;4973123;28;20058;-77
2021/01/25 09:14:57;;;;;;;16.60;1.83;;;1.30;99.90;;;;;;4973477;28;20455;-77
2021/01/25 09:17:24;;;;;;;7.97;1.40;;;1.30;99.90;;;;;;4973692;28;20018;-77
2021/01/25 09:19:50;;;;;;;7.03;1.63;;;1.40;99.90;;;;;;4973116;28;20054;-77
2021/01/25 09:22:16;;;;;;;4.63;1.73;;;1.40;99.90;;;;;;4972093;28;20443;-77
2021/01/25 09:24:42;;;;;;;15.65;1.85;;;1.50;99.90;;;;;;4973282;28;20026;-77
2021/01/25 09:27:09;;;;;;;4.38;1.63;;;1.50;99.90;;;;;;4972458;28;20130;-77
2021/01/25 09:29:35;;;;;;;7.72;1.45;;;1.50;99.90;;;;;;4973270;28;20514;-77
2021/01/25 09:32:01;;;;;;;6.38;1.85;;;1.60;99.90;;;;;;4973556;28;20038;-77
2021/01/25 09:34:26;;;;;;;10.65;2.25;;;1.60;99.90;;;;;;4973083;28;20395;-77
2021/01/25 09:36:52;;;;;;;8.82;3.70;;;1.70;99.90;;;;;;4973383;28;20105;-76
2021/01/25 09:39:18;;;;;;;2.22;1.00;;;1.70;99.90;;;;;;4988276;28;20122;-77
2021/01/25 09:41:47;;;;;;;5.55;0.88;;;1.70;99.90;;;;;;4973328;28;20027;-76
2021/01/25 09:44:15;;;;;;;8.23;1.83;;;1.70;99.90;;;;;;4972670;28;20080;-76
2021/01/25 09:46:42;;;;;;;3.85;2.65;;;1.80;99.90;;;;;;4973390;28;20081;-76
2021/01/25 09:49:11;;;;;;;5.22;1.23;;;1.80;99.90;;;;;;4971979;28;20026;-76
2021/01/25 09:51:37;;;;;;;4.45;1.30;;;1.80;99.90;;;;;;4973231;28;20109;-76
2021/01/25 09:54:03;;;;;;;6.18;2.45;;;1.80;99.90;;;;;;4972715;28;20035;-76
2021/01/25 09:56:29;;;;;;;4.93;1.52;;;1.90;99.90;;;;;;4973185;28;20023;-76
2021/01/25 09:58:55;;;;;;;1.85;1.50;;;2.00;99.90;;;;;;4973262;28;20487;-77
2021/01/25 10:01:24;;;;;;;6.65;2.03;;;2.00;99.90;;;;;;4973086;28;20027;-76
2021/01/25 10:03:50;;;;;;;8.82;1.90;;;2.00;99.90;;;;;;4972115;28;20027;-76
2021/01/25 10:06:15;;;;;;;6.65;1.60;;;2.10;99.90;;;;;;4972896;28;20101;-76
2021/01/25 10:08:41;;;;;;;3.88;1.80;;;2.10;99.90;;;;;;4972917;28;20147;-77
2021/01/25 10:11:07;;;;;;;4.68;1.75;;;2.20;99.90;;;;;;4972894;28;20487;-76
2021/01/25 10:13:33;;;;;;;5.63;1.50;;;2.10;99.90;;;;;;4971366;28;20638;-76
2021/01/25 10:15:59;;;;;;;2.97;1.13;;;2.10;99.90;;;;;;4987683;28;20039;-76
2021/01/25 10:18:25;;;;;;;2.38;1.13;;;2.10;99.90;;;;;;4972945;28;20111;-77
2021/01/25 10:20:51;;;;;;;3.70;0.98;;;2.00;99.90;;;;;;4972944;28;20039;-77
2021/01/25 10:23:16;;;;;;;6.30;1.40;;;2.00;99.90;;;;;;4972768;28;20023;-76
2021/01/25 10:25:42;;;;;;;9.10;1.17;;;2.10;99.90;;;;;;4972448;28;20023;-76
2021/01/25 10:28:07;;;;;;;0.82;0.73;;;2.00;99.90;;;;;;4971646;28;20030;-76
2021/01/25 10:30:33;;;;;;;2.35;0.98;;;2.00;99.90;;;;;;4972634;28;20109;-76
2021/01/25 10:32:59;;;;;;;3.10;0.80;;;2.00;99.90;;;;;;4976707;28;20026;-76
2021/01/25 10:35:26;;;;;;;4.25;1.23;;;2.00;99.90;;;;;;4976388;28;20451;-76
2021/01/25 10:37:51;;;;;;;3.35;1.23;;;2.10;99.90;;;;;;4976713;28;20105;-77
2021/01/25 10:40:18;;;;;;;3.90;1.15;;;2.20;99.90;;;;;;4976581;28;20161;-76
2021/01/25 10:42:44;;;;;;;4.07;0.90;;;2.40;99.90;;;;;;4976590;28;20106;-76
2021/01/25 10:45:10;;;;;;;4.18;0.93;;;2.60;99.90;;;;;;4991035;28;20078;-76
2021/01/25 10:47:37;;;;;;;3.65;0.80;;;2.80;99.90;;;;;;4976369;28;20026;-76
2021/01/25 10:50:05;;;;;;;1.90;0.55;;;3.10;99.90;;;;;;4976534;28;20054;-75
2021/01/25 10:52:33;;;;;;;5.32;1.40;;;3.40;99.90;;;;;;4974977;28;20035;-76
2021/01/25 10:54:59;;;;;;;2.70;0.70;;;3.50;99.90;;;;;;4971374;28;20522;-75
2021/01/25 10:57:24;;;;;;;2.05;0.73;;;3.50;99.90;;;;;;4957057;29;20039;-75
2021/01/25 10:59:50;;;;;;;3.33;0.45;;;3.40;99.90;;;;;;4969895;28;20050;-76
2021/01/25 11:02:17;;;;;;;1.80;0.70;;;3.20;99.90;;;;;;4974568;28;20446;-76
2021/01/25 11:04:43;;;;;;;0.82;0.55;;;3.10;99.90;;;;;;4975833;28;20026;-76
2021/01/25 11:07:09;;;;;;;1.27;0.30;;;3.00;99.90;;;;;;4976258;28;20022;-76
2021/01/25 11:09:34;;;;;;;1.10;0.50;;;2.90;99.90;;;;;;4976188;28;20070;-76
2021/01/25 11:12:01;;;;;;;0.77;0.60;;;2.90;99.90;;;;;;4975830;28;20123;-76
2021/01/25 11:14:26;;;;;;;1.08;0.55;;;2.90;99.90;;;;;;4975161;28;20502;-76
2021/01/25 11:16:52;;;;;;;3.20;0.70;;;3.00;99.90;;;;;;4976080;28;20062;-76
2021/01/25 11:19:18;;;;;;;1.48;0.70;;;3.10;99.90;;;;;;4975892;28;20027;-76
2021/01/25 11:21:43;;;;;;;3.75;0.93;;;3.30;99.90;;;;;;4975941;28;20483;-76
2021/01/25 11:24:09;;;;;;;0.68;0.60;;;3.40;99.90;;;;;;4975379;28;20027;-75
2021/01/25 11:26:38;;;;;;;2.92;0.70;;;3.40;99.90;;;;;;4975374;28;20023;-76
2021/01/25 11:29:05;;;;;;;2.15;1.10;;;3.60;99.90;;;;;;4975478;28;20031;-76
2021/01/25 11:31:30;;;;;;;1.15;0.70;;;3.60;99.90;;;;;;4975795;28;20023;-76
2021/01/25 11:33:56;;;;;;;1.33;0.80;;;3.70;99.90;;;;;;4975515;28;20093;-76
2021/01/25 11:36:21;;;;;;;2.30;1.10;;;3.80;99.90;;;;;;4974159;28;20089;-76
2021/01/25 11:38:47;;;;;;;3.70;2.42;;;3.80;99.90;;;;;;4975528;28;20090;-76
2021/01/25 11:41:12;;;;;;;4.50;1.20;;;3.80;99.90;;;;;;4975515;28;20027;-76
2021/01/25 11:43:38;;;;;;;4.55;1.10;;;3.90;99.90;;;;;;4974461;28;20057;-76
2021/01/25 11:46:04;;;;;;;2.63;1.50;;;3.70;99.90;;;;;;4975325;28;20031;-76
2021/01/25 11:48:29;;;;;;;7.30;0.70;;;3.70;99.90;;;;;;4975545;28;20058;-76
2021/01/25 11:50:55;;;;;;;1.55;0.77;;;3.60;99.90;;;;;;4975449;28;20031;-76
2021/01/25 11:53:20;;;;;;;2.67;0.90;;;3.50;99.90;;;;;;4975391;28;20033;-76
2021/01/25 11:55:46;;;;;;;2.28;1.00;;;3.50;99.90;;;;;;4957122;28;20123;-76
2021/01/25 11:58:12;;;;;;;3.67;1.00;;;3.40;99.90;;;;;;4955926;29;20070;-76
2021/01/25 12:00:37;;;;;;;2.17;1.00;;;3.40;99.90;;;;;;4975015;28;20061;-76
2021/01/25 12:03:04;;;;;;;3.45;0.93;;;3.30;99.90;;;;;;4975020;28;20019;-74
2021/01/25 12:05:30;;;;;;;2.33;0.63;;;3.30;99.90;;;;;;4974664;28;20498;-74
2021/01/25 12:07:58;;;;;;;3.83;0.88;;;3.20;99.90;;;;;;4975138;28;20027;-75
2021/01/25 12:10:23;;;;;;;6.53;1.55;;;3.20;99.90;;;;;;4975092;28;20038;-75
2021/01/25 12:12:49;;;;;;;1.70;1.20;;;3.20;99.90;;;;;;4974790;28;20035;-74
2021/01/25 12:15:15;;;;;;;2.38;1.02;;;3.30;99.90;;;;;;4974567;28;20031;-74
2021/01/25 12:17:40;;;;;;;4.00;1.05;;;3.50;99.90;;;;;;4974989;28;20089;-75
2021/01/25 12:20:06;;;;;;;1.17;0.73;;;3.60;99.90;;;;;;4974921;28;20049;-75
2021/01/25 12:22:32;;;;;;;2.47;1.02;;;3.80;99.90;;;;;;4975071;28;20097;-76
2021/01/25 12:24:57;;;;;;;1.65;1.00;;;4.00;99.90;;;;;;4974294;28;20165;-76
2021/01/25 12:27:23;;;;;;;1.85;0.60;;;4.20;99.90;;;;;;4974789;28;20054;-75
2021/01/25 12:29:49;;;;;;;1.75;0.95;;;4.20;99.90;;;;;;4974569;28;20034;-75
2021/01/25 12:32:14;;;;;;;2.70;1.48;;;4.10;99.90;;;;;;4974758;28;20027;-77
2021/01/25 12:34:42;;;;;;;3.40;0.90;;;4.10;99.90;;;;;;4973845;28;20085;-75
2021/01/25 12:37:08;;;;;;;3.65;1.45;;;4.00;99.90;;;;;;4974558;28;20018;-75
2021/01/25 12:39:33;;;;;;;1.85;0.75;;;3.90;99.90;;;;;;4974470;28;20046;-75
2021/01/25 12:41:59;;;;;;;7.93;0.63;;;3.90;99.90;;;;;;4974441;28;20475;-75
2021/01/25 12:44:24;;;;;;;3.67;0.75;;;3.80;99.90;;;;;;4965115;28;20031;-77
2021/01/25 12:46:50;;;;;;;2.45;1.02;;;3.70;99.90;;;;;;4955189;28;20031;-77
2021/01/25 12:49:17;;;;;;;2.13;0.75;;;3.60;99.90;;;;;;4955060;28;20031;-78
2021/01/25 12:51:43;;;;;;;4.15;1.27;;;3.60;99.90;;;;;;4954948;28;20031;-77
2021/01/25 12:54:09;;;;;;;5.78;1.70;;;3.60;99.90;;;;;;4958587;28;20035;-77